sensor_id;sensor_type;location;lat;lon;timestamp;P1;durP1;ratioP1;P2;durP2;ratioP2
33954;SDS011;20233;50.804;7.126;2023-12-04T00:01:55;20.48;;;10.98;;
33954;SDS011;20233;50.804;7.126;2023-12-04T00:04:21;19.55;;;10.23;;
33954;SDS011;20233;50.804;7.126;2023-12-04T00:06:46;20.00;;;10.40;;
33954;SDS011;20233;50.804;7.126;2023-12-04T00:09:12;16.75;;;9.02;;
33954;SDS011;20233;50.804;7.126;2023-12-04T00:11:37;19.52;;;10.68;;
33954;SDS011;20233;50.804;7.126;2023-12-04T00:14:03;16.95;;;9.95;;
33954;SDS011;20233;50.804;7.126;2023-12-04T00:16:29;22.15;;;11.05;;
33954;SDS011;20233;50.804;7.126;2023-12-04T00:18:54;19.27;;;10.75;;
33954;SDS011;20233;50.804;7.126;2023-12-04T00:21:20;17.25;;;9.68;;
33954;SDS011;20233;50.804;7.126;2023-12-04T00:23:45;16.65;;;9.25;;
33954;SDS011;20233;50.804;7.126;2023-12-04T00:26:11;17.25;;;8.50;;
33954;SDS011;20233;50.804;7.126;2023-12-04T00:28:38;19.20;;;9.88;;
33954;SDS011;20233;50.804;7.126;2023-12-04T00:31:04;17.55;;;8.75;;
33954;SDS011;20233;50.804;7.126;2023-12-04T00:33:29;17.92;;;8.07;;
33954;SDS011;20233;50.804;7.126;2023-12-04T00:35:56;16.55;;;8.50;;
33954;SDS011;20233;50.804;7.126;2023-12-04T00:38:23;16.73;;;9.30;;
33954;SDS011;20233;50.804;7.126;2023-12-04T00:40:48;18.00;;;8.85;;
33954;SDS011;20233;50.804;7.126;2023-12-04T00:43:14;16.63;;;8.43;;
33954;SDS011;20233;50.804;7.126;2023-12-04T00:45:40;17.77;;;9.20;;
33954;SDS011;20233;50.804;7.126;2023-12-04T00:48:06;17.27;;;9.40;;
33954;SDS011;20233;50.804;7.126;2023-12-04T00:50:31;17.83;;;8.70;;
33954;SDS011;20233;50.804;7.126;2023-12-04T00:52:57;17.25;;;10.07;;
33954;SDS011;20233;50.804;7.126;2023-12-04T00:55:23;18.02;;;8.82;;
33954;SDS011;20233;50.804;7.126;2023-12-04T00:57:48;14.65;;;7.45;;
33954;SDS011;20233;50.804;7.126;2023-12-04T01:00:14;16.65;;;8.93;;
33954;SDS011;20233;50.804;7.126;2023-12-04T01:02:41;16.95;;;8.63;;
33954;SDS011;20233;50.804;7.126;2023-12-04T01:05:07;17.40;;;8.60;;
33954;SDS011;20233;50.804;7.126;2023-12-04T01:07:33;14.65;;;8.55;;
33954;SDS011;20233;50.804;7.126;2023-12-04T01:09:58;16.20;;;8.77;;
33954;SDS011;20233;50.804;7.126;2023-12-04T01:12:24;15.10;;;8.32;;
33954;SDS011;20233;50.804;7.126;2023-12-04T01:14:49;15.93;;;8.65;;
33954;SDS011;20233;50.804;7.126;2023-12-04T01:17:15;15.23;;;8.05;;
33954;SDS011;20233;50.804;7.126;2023-12-04T01:19:41;16.38;;;9.23;;
33954;SDS011;20233;50.804;7.126;2023-12-04T01:22:06;17.60;;;8.50;;
33954;SDS011;20233;50.804;7.126;2023-12-04T01:24:32;16.88;;;8.75;;
33954;SDS011;20233;50.804;7.126;2023-12-04T01:26:57;16.08;;;7.68;;
33954;SDS011;20233;50.804;7.126;2023-12-04T01:29:23;16.20;;;8.60;;
33954;SDS011;20233;50.804;7.126;2023-12-04T01:31:49;16.00;;;8.25;;
33954;SDS011;20233;50.804;7.126;2023-12-04T01:34:14;14.45;;;8.57;;
33954;SDS011;20233;50.804;7.126;2023-12-04T01:36:40;18.00;;;8.10;;
33954;SDS011;20233;50.804;7.126;2023-12-04T01:39:06;14.48;;;7.88;;
33954;SDS011;20233;50.804;7.126;2023-12-04T01:41:32;14.93;;;8.30;;
33954;SDS011;20233;50.804;7.126;2023-12-04T01:43:57;15.23;;;9.00;;
33954;SDS011;20233;50.804;7.126;2023-12-04T01:46:23;16.92;;;9.00;;
33954;SDS011;20233;50.804;7.126;2023-12-04T01:48:48;15.20;;;8.35;;
33954;SDS011;20233;50.804;7.126;2023-12-04T01:51:14;15.57;;;8.10;;
33954;SDS011;20233;50.804;7.126;2023-12-04T01:53:42;15.52;;;8.15;;
33954;SDS011;20233;50.804;7.126;2023-12-04T01:56:08;14.60;;;8.20;;
33954;SDS011;20233;50.804;7.126;2023-12-04T01:58:34;15.63;;;8.50;;
33954;SDS011;20233;50.804;7.126;2023-12-04T02:01:00;18.48;;;9.00;;
33954;SDS011;20233;50.804;7.126;2023-12-04T02:03:27;16.85;;;8.30;;
33954;SDS011;20233;50.804;7.126;2023-12-04T02:05:53;15.40;;;7.72;;
33954;SDS011;20233;50.804;7.126;2023-12-04T02:08:19;15.40;;;8.15;;
33954;SDS011;20233;50.804;7.126;2023-12-04T02:10:45;14.88;;;7.65;;
33954;SDS011;20233;50.804;7.126;2023-12-04T02:13:10;15.20;;;8.40;;
33954;SDS011;20233;50.804;7.126;2023-12-04T02:15:36;14.85;;;7.97;;
33954;SDS011;20233;50.804;7.126;2023-12-04T02:18:02;16.90;;;8.10;;
33954;SDS011;20233;50.804;7.126;2023-12-04T02:20:32;14.77;;;7.93;;
33954;SDS011;20233;50.804;7.126;2023-12-04T02:23:01;16.15;;;8.30;;
33954;SDS011;20233;50.804;7.126;2023-12-04T02:25:27;12.82;;;7.15;;
33954;SDS011;20233;50.804;7.126;2023-12-04T02:27:54;13.98;;;7.43;;
33954;SDS011;20233;50.804;7.126;2023-12-04T02:30:23;15.45;;;7.97;;
33954;SDS011;20233;50.804;7.126;2023-12-04T02:32:50;14.50;;;7.53;;
33954;SDS011;20233;50.804;7.126;2023-12-04T02:35:22;14.13;;;7.35;;
33954;SDS011;20233;50.804;7.126;2023-12-04T02:37:51;14.77;;;7.47;;
33954;SDS011;20233;50.804;7.126;2023-12-04T02:40:18;15.73;;;7.53;;
33954;SDS011;20233;50.804;7.126;2023-12-04T02:42:44;16.67;;;7.40;;
33954;SDS011;20233;50.804;7.126;2023-12-04T02:45:09;14.93;;;7.88;;
33954;SDS011;20233;50.804;7.126;2023-12-04T02:47:35;18.20;;;8.23;;
33954;SDS011;20233;50.804;7.126;2023-12-04T02:50:00;13.95;;;7.07;;
33954;SDS011;20233;50.804;7.126;2023-12-04T02:52:26;15.50;;;8.13;;
33954;SDS011;20233;50.804;7.126;2023-12-04T02:54:52;13.68;;;7.47;;
33954;SDS011;20233;50.804;7.126;2023-12-04T02:57:17;14.43;;;7.63;;
33954;SDS011;20233;50.804;7.126;2023-12-04T02:59:43;13.15;;;7.93;;
33954;SDS011;20233;50.804;7.126;2023-12-04T03:02:08;13.38;;;7.25;;
33954;SDS011;20233;50.804;7.126;2023-12-04T03:04:34;13.07;;;6.55;;
33954;SDS011;20233;50.804;7.126;2023-12-04T03:07:00;14.15;;;7.18;;
33954;SDS011;20233;50.804;7.126;2023-12-04T03:09:25;14.55;;;7.07;;
33954;SDS011;20233;50.804;7.126;2023-12-04T03:11:51;16.83;;;8.40;;
33954;SDS011;20233;50.804;7.126;2023-12-04T03:14:17;16.15;;;7.63;;
33954;SDS011;20233;50.804;7.126;2023-12-04T03:16:43;11.98;;;7.00;;
33954;SDS011;20233;50.804;7.126;2023-12-04T03:19:08;12.43;;;7.03;;
33954;SDS011;20233;50.804;7.126;2023-12-04T03:21:34;13.90;;;7.28;;
33954;SDS011;20233;50.804;7.126;2023-12-04T03:23:59;14.35;;;6.88;;
33954;SDS011;20233;50.804;7.126;2023-12-04T03:26:26;15.35;;;7.70;;
33954;SDS011;20233;50.804;7.126;2023-12-04T03:28:51;13.93;;;7.82;;
33954;SDS011;20233;50.804;7.126;2023-12-04T03:31:17;17.25;;;8.85;;
33954;SDS011;20233;50.804;7.126;2023-12-04T03:33:43;13.68;;;7.97;;
33954;SDS011;20233;50.804;7.126;2023-12-04T03:36:09;15.52;;;8.10;;
33954;SDS011;20233;50.804;7.126;2023-12-04T03:38:34;15.50;;;8.38;;
33954;SDS011;20233;50.804;7.126;2023-12-04T03:41:00;17.80;;;8.90;;
33954;SDS011;20233;50.804;7.126;2023-12-04T03:43:26;16.63;;;8.65;;
33954;SDS011;20233;50.804;7.126;2023-12-04T03:45:51;15.85;;;8.75;;
33954;SDS011;20233;50.804;7.126;2023-12-04T03:48:17;16.50;;;8.75;;
33954;SDS011;20233;50.804;7.126;2023-12-04T03:50:42;18.27;;;9.75;;
33954;SDS011;20233;50.804;7.126;2023-12-04T03:53:08;17.20;;;8.60;;
33954;SDS011;20233;50.804;7.126;2023-12-04T03:55:33;16.63;;;9.40;;
33954;SDS011;20233;50.804;7.126;2023-12-04T03:57:59;18.42;;;9.68;;
33954;SDS011;20233;50.804;7.126;2023-12-04T04:00:24;16.85;;;9.50;;
33954;SDS011;20233;50.804;7.126;2023-12-04T04:02:50;17.25;;;9.25;;
33954;SDS011;20233;50.804;7.126;2023-12-04T04:05:15;15.98;;;9.15;;
33954;SDS011;20233;50.804;7.126;2023-12-04T04:07:41;19.40;;;9.52;;
33954;SDS011;20233;50.804;7.126;2023-12-04T04:10:07;16.42;;;9.55;;
33954;SDS011;20233;50.804;7.126;2023-12-04T04:12:33;19.05;;;9.98;;
33954;SDS011;20233;50.804;7.126;2023-12-04T04:14:59;18.67;;;9.40;;
33954;SDS011;20233;50.804;7.126;2023-12-04T04:17:26;19.17;;;9.02;;
33954;SDS011;20233;50.804;7.126;2023-12-04T04:19:53;16.77;;;9.18;;
33954;SDS011;20233;50.804;7.126;2023-12-04T04:22:19;18.90;;;9.95;;
33954;SDS011;20233;50.804;7.126;2023-12-04T04:24:47;18.17;;;9.75;;
33954;SDS011;20233;50.804;7.126;2023-12-04T04:27:14;16.65;;;8.75;;
33954;SDS011;20233;50.804;7.126;2023-12-04T04:29:41;17.77;;;9.32;;
33954;SDS011;20233;50.804;7.126;2023-12-04T04:32:07;17.63;;;8.95;;
33954;SDS011;20233;50.804;7.126;2023-12-04T04:34:33;17.35;;;10.20;;
33954;SDS011;20233;50.804;7.126;2023-12-04T04:36:59;17.40;;;8.88;;
33954;SDS011;20233;50.804;7.126;2023-12-04T04:39:24;17.83;;;8.93;;
33954;SDS011;20233;50.804;7.126;2023-12-04T04:41:50;16.48;;;8.75;;
33954;SDS011;20233;50.804;7.126;2023-12-04T04:44:15;16.33;;;9.27;;
33954;SDS011;20233;50.804;7.126;2023-12-04T04:46:41;16.63;;;9.13;;
33954;SDS011;20233;50.804;7.126;2023-12-04T04:49:06;18.95;;;9.77;;
33954;SDS011;20233;50.804;7.126;2023-12-04T04:51:32;17.25;;;9.90;;
33954;SDS011;20233;50.804;7.126;2023-12-04T04:53:59;17.15;;;9.32;;
33954;SDS011;20233;50.804;7.126;2023-12-04T04:56:25;18.05;;;10.35;;
33954;SDS011;20233;50.804;7.126;2023-12-04T04:58:51;19.25;;;10.68;;
33954;SDS011;20233;50.804;7.126;2023-12-04T05:01:16;19.98;;;9.75;;
33954;SDS011;20233;50.804;7.126;2023-12-04T05:03:42;18.05;;;9.85;;
33954;SDS011;20233;50.804;7.126;2023-12-04T05:06:07;19.05;;;9.73;;
33954;SDS011;20233;50.804;7.126;2023-12-04T05:08:34;16.23;;;8.98;;
33954;SDS011;20233;50.804;7.126;2023-12-04T05:10:59;16.58;;;9.98;;
33954;SDS011;20233;50.804;7.126;2023-12-04T05:13:25;19.73;;;10.02;;
33954;SDS011;20233;50.804;7.126;2023-12-04T05:15:50;17.38;;;9.52;;
33954;SDS011;20233;50.804;7.126;2023-12-04T05:18:16;20.98;;;10.68;;
33954;SDS011;20233;50.804;7.126;2023-12-04T05:20:41;18.88;;;10.35;;
33954;SDS011;20233;50.804;7.126;2023-12-04T05:23:07;17.67;;;9.60;;
33954;SDS011;20233;50.804;7.126;2023-12-04T05:25:32;15.73;;;9.10;;
33954;SDS011;20233;50.804;7.126;2023-12-04T05:27:58;18.73;;;10.27;;
33954;SDS011;20233;50.804;7.126;2023-12-04T05:30:24;16.73;;;8.82;;
33954;SDS011;20233;50.804;7.126;2023-12-04T05:32:49;18.90;;;9.85;;
33954;SDS011;20233;50.804;7.126;2023-12-04T05:35:15;19.35;;;10.75;;
33954;SDS011;20233;50.804;7.126;2023-12-04T05:37:42;22.33;;;10.30;;
33954;SDS011;20233;50.804;7.126;2023-12-04T05:40:07;20.08;;;10.95;;
33954;SDS011;20233;50.804;7.126;2023-12-04T05:42:34;20.23;;;11.48;;
33954;SDS011;20233;50.804;7.126;2023-12-04T05:44:59;18.58;;;11.10;;
33954;SDS011;20233;50.804;7.126;2023-12-04T05:47:25;19.75;;;10.90;;
33954;SDS011;20233;50.804;7.126;2023-12-04T05:49:51;20.95;;;11.55;;
33954;SDS011;20233;50.804;7.126;2023-12-04T05:52:17;23.05;;;11.23;;
33954;SDS011;20233;50.804;7.126;2023-12-04T05:54:42;21.08;;;11.30;;
33954;SDS011;20233;50.804;7.126;2023-12-04T05:57:08;19.45;;;10.70;;
33954;SDS011;20233;50.804;7.126;2023-12-04T05:59:36;20.60;;;11.50;;
33954;SDS011;20233;50.804;7.126;2023-12-04T06:02:01;23.40;;;13.18;;
33954;SDS011;20233;50.804;7.126;2023-12-04T06:04:27;24.95;;;12.82;;
33954;SDS011;20233;50.804;7.126;2023-12-04T06:06:52;24.13;;;12.40;;
33954;SDS011;20233;50.804;7.126;2023-12-04T06:09:18;24.48;;;12.20;;
33954;SDS011;20233;50.804;7.126;2023-12-04T06:11:43;23.65;;;12.80;;
33954;SDS011;20233;50.804;7.126;2023-12-04T06:14:09;23.45;;;13.10;;
33954;SDS011;20233;50.804;7.126;2023-12-04T06:16:35;24.83;;;11.98;;
33954;SDS011;20233;50.804;7.126;2023-12-04T06:19:03;22.52;;;12.18;;
33954;SDS011;20233;50.804;7.126;2023-12-04T06:21:31;20.02;;;11.93;;
33954;SDS011;20233;50.804;7.126;2023-12-04T06:23:57;19.83;;;11.52;;
33954;SDS011;20233;50.804;7.126;2023-12-04T06:26:23;20.58;;;11.93;;
33954;SDS011;20233;50.804;7.126;2023-12-04T06:28:49;20.67;;;11.95;;
33954;SDS011;20233;50.804;7.126;2023-12-04T06:31:15;20.25;;;11.50;;
33954;SDS011;20233;50.804;7.126;2023-12-04T06:33:41;19.85;;;11.57;;
33954;SDS011;20233;50.804;7.126;2023-12-04T06:36:07;20.17;;;11.60;;
33954;SDS011;20233;50.804;7.126;2023-12-04T06:38:33;23.63;;;11.70;;
33954;SDS011;20233;50.804;7.126;2023-12-04T06:41:06;19.70;;;10.95;;
33954;SDS011;20233;50.804;7.126;2023-12-04T06:43:32;22.52;;;12.00;;
33954;SDS011;20233;50.804;7.126;2023-12-04T06:45:58;20.33;;;11.02;;
33954;SDS011;20233;50.804;7.126;2023-12-04T06:48:24;20.27;;;10.77;;
33954;SDS011;20233;50.804;7.126;2023-12-04T06:50:50;23.17;;;12.32;;
33954;SDS011;20233;50.804;7.126;2023-12-04T06:53:16;22.92;;;11.73;;
33954;SDS011;20233;50.804;7.126;2023-12-04T06:55:42;23.38;;;10.80;;
33954;SDS011;20233;50.804;7.126;2023-12-04T06:58:09;22.00;;;11.80;;
33954;SDS011;20233;50.804;7.126;2023-12-04T07:00:34;23.95;;;12.50;;
33954;SDS011;20233;50.804;7.126;2023-12-04T07:03:00;21.40;;;11.63;;
33954;SDS011;20233;50.804;7.126;2023-12-04T07:05:26;22.45;;;12.02;;
33954;SDS011;20233;50.804;7.126;2023-12-04T07:07:51;23.70;;;12.00;;
33954;SDS011;20233;50.804;7.126;2023-12-04T07:10:17;20.95;;;11.70;;
33954;SDS011;20233;50.804;7.126;2023-12-04T07:12:44;21.98;;;11.27;;
33954;SDS011;20233;50.804;7.126;2023-12-04T07:15:10;22.42;;;12.60;;
33954;SDS011;20233;50.804;7.126;2023-12-04T07:17:36;19.88;;;12.02;;
33954;SDS011;20233;50.804;7.126;2023-12-04T07:20:02;22.30;;;12.55;;
33954;SDS011;20233;50.804;7.126;2023-12-04T07:22:31;22.85;;;10.95;;
33954;SDS011;20233;50.804;7.126;2023-12-04T07:24:57;21.65;;;12.05;;
33954;SDS011;20233;50.804;7.126;2023-12-04T07:27:22;24.73;;;11.82;;
33954;SDS011;20233;50.804;7.126;2023-12-04T07:29:48;19.10;;;11.00;;
33954;SDS011;20233;50.804;7.126;2023-12-04T07:32:13;19.70;;;10.48;;
33954;SDS011;20233;50.804;7.126;2023-12-04T07:34:39;23.13;;;11.48;;
33954;SDS011;20233;50.804;7.126;2023-12-04T07:37:04;17.90;;;10.13;;
33954;SDS011;20233;50.804;7.126;2023-12-04T07:39:30;21.65;;;11.20;;
33954;SDS011;20233;50.804;7.126;2023-12-04T07:41:55;18.85;;;10.75;;
33954;SDS011;20233;50.804;7.126;2023-12-04T07:44:21;20.23;;;10.40;;
33954;SDS011;20233;50.804;7.126;2023-12-04T07:46:46;19.48;;;10.45;;
33954;SDS011;20233;50.804;7.126;2023-12-04T07:49:12;22.40;;;11.48;;
33954;SDS011;20233;50.804;7.126;2023-12-04T07:51:38;22.35;;;10.93;;
33954;SDS011;20233;50.804;7.126;2023-12-04T07:54:03;21.73;;;12.07;;
33954;SDS011;20233;50.804;7.126;2023-12-04T07:56:29;24.13;;;12.02;;
33954;SDS011;20233;50.804;7.126;2023-12-04T07:58:55;19.83;;;11.15;;
33954;SDS011;20233;50.804;7.126;2023-12-04T08:01:21;21.55;;;11.10;;
33954;SDS011;20233;50.804;7.126;2023-12-04T08:03:48;20.83;;;11.13;;
33954;SDS011;20233;50.804;7.126;2023-12-04T08:06:13;21.55;;;11.70;;
33954;SDS011;20233;50.804;7.126;2023-12-04T08:08:40;24.13;;;11.98;;
33954;SDS011;20233;50.804;7.126;2023-12-04T08:11:06;19.63;;;10.77;;
33954;SDS011;20233;50.804;7.126;2023-12-04T08:13:34;20.20;;;10.45;;
33954;SDS011;20233;50.804;7.126;2023-12-04T08:16:00;19.77;;;11.07;;
33954;SDS011;20233;50.804;7.126;2023-12-04T08:18:26;21.23;;;10.93;;
33954;SDS011;20233;50.804;7.126;2023-12-04T08:20:52;18.55;;;10.68;;
33954;SDS011;20233;50.804;7.126;2023-12-04T08:23:17;17.35;;;8.77;;
33954;SDS011;20233;50.804;7.126;2023-12-04T08:25:43;18.48;;;10.00;;
33954;SDS011;20233;50.804;7.126;2023-12-04T08:28:09;20.58;;;10.70;;
33954;SDS011;20233;50.804;7.126;2023-12-04T08:30:35;19.08;;;10.82;;
33954;SDS011;20233;50.804;7.126;2023-12-04T08:33:01;20.55;;;11.00;;
33954;SDS011;20233;50.804;7.126;2023-12-04T08:35:26;20.83;;;10.68;;
33954;SDS011;20233;50.804;7.126;2023-12-04T08:37:52;20.30;;;10.30;;
33954;SDS011;20233;50.804;7.126;2023-12-04T08:40:17;16.20;;;9.93;;
33954;SDS011;20233;50.804;7.126;2023-12-04T08:42:43;19.38;;;10.05;;
33954;SDS011;20233;50.804;7.126;2023-12-04T08:45:10;19.02;;;10.85;;
33954;SDS011;20233;50.804;7.126;2023-12-04T08:47:36;22.13;;;10.23;;
33954;SDS011;20233;50.804;7.126;2023-12-04T08:50:01;17.30;;;10.15;;
33954;SDS011;20233;50.804;7.126;2023-12-04T08:52:27;20.98;;;10.68;;
33954;SDS011;20233;50.804;7.126;2023-12-04T08:54:53;21.23;;;10.70;;
33954;SDS011;20233;50.804;7.126;2023-12-04T08:57:19;17.33;;;10.73;;
33954;SDS011;20233;50.804;7.126;2023-12-04T08:59:44;20.40;;;10.63;;
33954;SDS011;20233;50.804;7.126;2023-12-04T09:02:10;20.08;;;11.02;;
33954;SDS011;20233;50.804;7.126;2023-12-04T09:04:36;20.88;;;11.07;;
33954;SDS011;20233;50.804;7.126;2023-12-04T09:07:02;17.90;;;9.73;;
33954;SDS011;20233;50.804;7.126;2023-12-04T09:09:28;18.08;;;9.82;;
33954;SDS011;20233;50.804;7.126;2023-12-04T09:11:54;19.13;;;11.25;;
33954;SDS011;20233;50.804;7.126;2023-12-04T09:14:20;17.42;;;10.10;;
33954;SDS011;20233;50.804;7.126;2023-12-04T09:16:46;18.67;;;10.82;;
33954;SDS011;20233;50.804;7.126;2023-12-04T09:19:12;18.83;;;9.63;;
33954;SDS011;20233;50.804;7.126;2023-12-04T09:21:38;17.45;;;8.80;;
33954;SDS011;20233;50.804;7.126;2023-12-04T09:24:04;17.92;;;10.02;;
33954;SDS011;20233;50.804;7.126;2023-12-04T09:26:29;19.10;;;9.73;;
33954;SDS011;20233;50.804;7.126;2023-12-04T09:28:56;17.35;;;9.95;;
33954;SDS011;20233;50.804;7.126;2023-12-04T09:31:22;18.30;;;9.85;;
33954;SDS011;20233;50.804;7.126;2023-12-04T09:33:47;18.35;;;9.55;;
33954;SDS011;20233;50.804;7.126;2023-12-04T09:36:13;20.33;;;10.45;;
33954;SDS011;20233;50.804;7.126;2023-12-04T09:38:39;18.00;;;10.02;;
33954;SDS011;20233;50.804;7.126;2023-12-04T09:41:04;19.13;;;9.63;;
33954;SDS011;20233;50.804;7.126;2023-12-04T09:43:33;20.88;;;9.68;;
33954;SDS011;20233;50.804;7.126;2023-12-04T09:46:00;17.42;;;9.52;;
33954;SDS011;20233;50.804;7.126;2023-12-04T09:48:26;19.05;;;8.52;;
33954;SDS011;20233;50.804;7.126;2023-12-04T09:50:57;18.08;;;8.93;;
33954;SDS011;20233;50.804;7.126;2023-12-04T09:53:23;16.52;;;8.95;;
33954;SDS011;20233;50.804;7.126;2023-12-04T09:55:51;16.13;;;8.90;;
33954;SDS011;20233;50.804;7.126;2023-12-04T09:58:21;17.85;;;8.98;;
33954;SDS011;20233;50.804;7.126;2023-12-04T10:00:50;19.13;;;9.43;;
33954;SDS011;20233;50.804;7.126;2023-12-04T10:03:22;17.58;;;8.95;;
33954;SDS011;20233;50.804;7.126;2023-12-04T10:05:48;18.15;;;9.07;;
33954;SDS011;20233;50.804;7.126;2023-12-04T10:08:14;14.88;;;8.38;;
33954;SDS011;20233;50.804;7.126;2023-12-04T10:10:39;19.75;;;9.45;;
33954;SDS011;20233;50.804;7.126;2023-12-04T10:13:05;20.38;;;9.23;;
33954;SDS011;20233;50.804;7.126;2023-12-04T10:15:31;16.77;;;8.85;;
33954;SDS011;20233;50.804;7.126;2023-12-04T10:17:58;13.93;;;8.02;;
33954;SDS011;20233;50.804;7.126;2023-12-04T10:20:24;16.88;;;9.77;;
33954;SDS011;20233;50.804;7.126;2023-12-04T10:25:30;15.20;;;7.95;;
33954;SDS011;20233;50.804;7.126;2023-12-04T10:28:09;14.68;;;7.60;;
33954;SDS011;20233;50.804;7.126;2023-12-04T10:30:36;16.13;;;8.50;;
33954;SDS011;20233;50.804;7.126;2023-12-04T10:33:06;12.27;;;6.90;;
33954;SDS011;20233;50.804;7.126;2023-12-04T10:35:33;16.33;;;8.73;;
33954;SDS011;20233;50.804;7.126;2023-12-04T10:38:03;14.30;;;7.22;;
33954;SDS011;20233;50.804;7.126;2023-12-04T10:40:30;13.95;;;6.43;;
33954;SDS011;20233;50.804;7.126;2023-12-04T10:45:34;13.48;;;7.35;;
33954;SDS011;20233;50.804;7.126;2023-12-04T10:48:02;14.48;;;7.43;;
33954;SDS011;20233;50.804;7.126;2023-12-04T10:50:31;10.52;;;6.28;;
33954;SDS011;20233;50.804;7.126;2023-12-04T10:53:01;12.85;;;7.00;;
33954;SDS011;20233;50.804;7.126;2023-12-04T10:55:29;12.90;;;7.90;;
33954;SDS011;20233;50.804;7.126;2023-12-04T10:57:59;12.77;;;7.50;;
33954;SDS011;20233;50.804;7.126;2023-12-04T11:00:28;15.30;;;7.57;;
33954;SDS011;20233;50.804;7.126;2023-12-04T11:02:57;14.50;;;7.55;;
33954;SDS011;20233;50.804;7.126;2023-12-04T11:05:38;15.77;;;7.60;;
33954;SDS011;20233;50.804;7.126;2023-12-04T11:08:06;15.48;;;8.18;;
33954;SDS011;20233;50.804;7.126;2023-12-04T11:10:33;14.35;;;8.35;;
33954;SDS011;20233;50.804;7.126;2023-12-04T11:13:08;13.13;;;7.57;;
33954;SDS011;20233;50.804;7.126;2023-12-04T11:15:40;19.63;;;8.32;;
33954;SDS011;20233;50.804;7.126;2023-12-04T11:18:07;15.85;;;8.27;;
33954;SDS011;20233;50.804;7.126;2023-12-04T11:20:35;15.93;;;8.32;;
33954;SDS011;20233;50.804;7.126;2023-12-04T11:23:06;15.50;;;8.02;;
33954;SDS011;20233;50.804;7.126;2023-12-04T11:25:32;18.02;;;9.25;;
33954;SDS011;20233;50.804;7.126;2023-12-04T11:28:00;13.93;;;8.60;;
33954;SDS011;20233;50.804;7.126;2023-12-04T11:30:28;17.55;;;8.15;;
33954;SDS011;20233;50.804;7.126;2023-12-04T11:32:55;14.43;;;8.65;;
33954;SDS011;20233;50.804;7.126;2023-12-04T11:35:25;15.43;;;7.82;;
33954;SDS011;20233;50.804;7.126;2023-12-04T11:37:51;15.85;;;8.93;;
33954;SDS011;20233;50.804;7.126;2023-12-04T11:40:18;15.38;;;8.60;;
33954;SDS011;20233;50.804;7.126;2023-12-04T11:42:44;14.77;;;7.93;;
33954;SDS011;20233;50.804;7.126;2023-12-04T11:45:10;16.55;;;9.13;;
33954;SDS011;20233;50.804;7.126;2023-12-04T11:47:49;22.25;;;9.07;;
33954;SDS011;20233;50.804;7.126;2023-12-04T11:50:22;16.58;;;9.15;;
33954;SDS011;20233;50.804;7.126;2023-12-04T11:52:50;16.38;;;8.80;;
33954;SDS011;20233;50.804;7.126;2023-12-04T11:55:23;14.52;;;7.97;;
33954;SDS011;20233;50.804;7.126;2023-12-04T11:57:51;16.17;;;8.38;;
33954;SDS011;20233;50.804;7.126;2023-12-04T12:00:19;18.52;;;9.30;;
33954;SDS011;20233;50.804;7.126;2023-12-04T12:05:19;16.73;;;8.18;;
33954;SDS011;20233;50.804;7.126;2023-12-04T12:07:46;13.57;;;6.90;;
33954;SDS011;20233;50.804;7.126;2023-12-04T12:10:12;15.77;;;7.10;;
33954;SDS011;20233;50.804;7.126;2023-12-04T12:12:42;15.57;;;7.60;;
33954;SDS011;20233;50.804;7.126;2023-12-04T12:15:11;15.48;;;7.97;;
33954;SDS011;20233;50.804;7.126;2023-12-04T12:17:37;12.30;;;6.90;;
33954;SDS011;20233;50.804;7.126;2023-12-04T12:20:07;13.57;;;7.75;;
33954;SDS011;20233;50.804;7.126;2023-12-04T12:22:34;16.67;;;7.88;;
33954;SDS011;20233;50.804;7.126;2023-12-04T12:25:01;13.18;;;8.02;;
33954;SDS011;20233;50.804;7.126;2023-12-04T12:27:29;16.55;;;8.23;;
33954;SDS011;20233;50.804;7.126;2023-12-04T12:30:00;15.02;;;7.75;;
33954;SDS011;20233;50.804;7.126;2023-12-04T12:32:26;13.77;;;7.15;;
33954;SDS011;20233;50.804;7.126;2023-12-04T12:34:52;15.23;;;7.65;;
33954;SDS011;20233;50.804;7.126;2023-12-04T12:37:20;13.98;;;7.65;;
33954;SDS011;20233;50.804;7.126;2023-12-04T12:39:46;13.02;;;6.85;;
33954;SDS011;20233;50.804;7.126;2023-12-04T12:42:20;14.18;;;7.57;;
33954;SDS011;20233;50.804;7.126;2023-12-04T12:44:47;13.35;;;7.47;;
33954;SDS011;20233;50.804;7.126;2023-12-04T12:47:14;12.90;;;7.72;;
33954;SDS011;20233;50.804;7.126;2023-12-04T12:49:40;14.40;;;8.02;;
33954;SDS011;20233;50.804;7.126;2023-12-04T12:52:06;17.27;;;9.27;;
33954;SDS011;20233;50.804;7.126;2023-12-04T12:54:42;15.15;;;8.27;;
33954;SDS011;20233;50.804;7.126;2023-12-04T12:57:10;14.02;;;8.10;;
33954;SDS011;20233;50.804;7.126;2023-12-04T12:59:37;15.80;;;8.93;;
33954;SDS011;20233;50.804;7.126;2023-12-04T13:02:05;15.27;;;8.20;;
33954;SDS011;20233;50.804;7.126;2023-12-04T13:04:35;16.15;;;8.13;;
33954;SDS011;20233;50.804;7.126;2023-12-04T13:07:05;18.38;;;8.80;;
33954;SDS011;20233;50.804;7.126;2023-12-04T13:09:32;13.52;;;8.20;;
33954;SDS011;20233;50.804;7.126;2023-12-04T13:12:00;16.67;;;8.68;;
33954;SDS011;20233;50.804;7.126;2023-12-04T13:14:26;17.95;;;8.70;;
33954;SDS011;20233;50.804;7.126;2023-12-04T13:16:52;14.80;;;9.25;;
33954;SDS011;20233;50.804;7.126;2023-12-04T13:19:19;17.17;;;9.32;;
33954;SDS011;20233;50.804;7.126;2023-12-04T13:21:45;16.38;;;9.30;;
33954;SDS011;20233;50.804;7.126;2023-12-04T13:24:11;19.10;;;9.73;;
33954;SDS011;20233;50.804;7.126;2023-12-04T13:26:37;18.77;;;9.77;;
33954;SDS011;20233;50.804;7.126;2023-12-04T13:29:03;16.17;;;8.45;;
33954;SDS011;20233;50.804;7.126;2023-12-04T13:31:29;16.08;;;9.15;;
33954;SDS011;20233;50.804;7.126;2023-12-04T13:33:54;14.38;;;8.30;;
33954;SDS011;20233;50.804;7.126;2023-12-04T13:36:20;16.23;;;8.45;;
33954;SDS011;20233;50.804;7.126;2023-12-04T13:38:46;16.00;;;8.35;;
33954;SDS011;20233;50.804;7.126;2023-12-04T13:41:12;14.75;;;8.32;;
33954;SDS011;20233;50.804;7.126;2023-12-04T13:43:57;14.40;;;7.97;;
33954;SDS011;20233;50.804;7.126;2023-12-04T13:46:24;14.98;;;8.65;;
33954;SDS011;20233;50.804;7.126;2023-12-04T13:48:54;14.75;;;7.85;;
33954;SDS011;20233;50.804;7.126;2023-12-04T13:51:20;16.42;;;8.77;;
33954;SDS011;20233;50.804;7.126;2023-12-04T13:53:47;16.98;;;8.88;;
33954;SDS011;20233;50.804;7.126;2023-12-04T13:56:15;15.65;;;9.32;;
33954;SDS011;20233;50.804;7.126;2023-12-04T13:58:50;15.25;;;8.55;;
33954;SDS011;20233;50.804;7.126;2023-12-04T14:01:22;19.67;;;9.73;;
33954;SDS011;20233;50.804;7.126;2023-12-04T14:03:49;17.48;;;8.50;;
33954;SDS011;20233;50.804;7.126;2023-12-04T14:06:16;14.75;;;8.32;;
33954;SDS011;20233;50.804;7.126;2023-12-04T14:08:41;13.48;;;7.95;;
33954;SDS011;20233;50.804;7.126;2023-12-04T14:11:07;14.63;;;7.93;;
33954;SDS011;20233;50.804;7.126;2023-12-04T14:13:35;15.38;;;8.35;;
33954;SDS011;20233;50.804;7.126;2023-12-04T14:16:00;16.23;;;9.10;;
33954;SDS011;20233;50.804;7.126;2023-12-04T14:18:27;14.52;;;8.73;;
33954;SDS011;20233;50.804;7.126;2023-12-04T14:20:54;16.60;;;7.88;;
33954;SDS011;20233;50.804;7.126;2023-12-04T14:23:20;12.80;;;7.88;;
33954;SDS011;20233;50.804;7.126;2023-12-04T14:25:46;14.65;;;7.95;;
33954;SDS011;20233;50.804;7.126;2023-12-04T14:28:12;13.02;;;7.35;;
33954;SDS011;20233;50.804;7.126;2023-12-04T14:30:37;15.48;;;8.25;;
33954;SDS011;20233;50.804;7.126;2023-12-04T14:33:03;16.52;;;9.00;;
33954;SDS011;20233;50.804;7.126;2023-12-04T14:35:29;14.02;;;7.88;;